createdAt,value
2023-08-12T00:03:28.527Z,11.91
2023-08-12T00:08:31.802Z,11.84
2023-08-12T00:13:34.997Z,11.77
2023-08-12T00:18:38.227Z,11.66
2023-08-12T00:23:42.017Z,11.59
2023-08-12T00:28:44.669Z,11.58
2023-08-12T00:33:47.380Z,11.60
2023-08-12T00:38:50.671Z,11.61
2023-08-12T00:43:53.277Z,11.59
2023-08-12T00:48:55.930Z,11.55
2023-08-12T00:54:00.283Z,11.52
2023-08-12T00:59:06.204Z,11.50
2023-08-12T01:04:09.001Z,11.48
2023-08-12T01:09:11.976Z,11.43
2023-08-12T01:14:20.420Z,11.38
2023-08-12T01:19:37.638Z,11.35
2023-08-12T01:24:45.002Z,11.33
2023-08-12T01:29:50.625Z,11.26
2023-08-12T01:35:07.814Z,11.18
2023-08-12T01:40:12.626Z,11.16
2023-08-12T01:45:15.640Z,11.16
2023-08-12T01:50:20.104Z,11.15
2023-08-12T01:55:22.780Z,11.13
2023-08-12T02:00:25.785Z,11.10
2023-08-12T02:05:28.447Z,11.08
2023-08-12T02:10:31.466Z,11.07
2023-08-12T02:15:34.116Z,11.04
2023-08-12T02:20:36.797Z,10.99
2023-08-12T02:25:39.482Z,10.95
2023-08-12T02:30:44.514Z,10.94
2023-08-12T02:35:47.143Z,10.93
2023-08-12T02:40:50.874Z,10.90
2023-08-12T02:45:53.792Z,10.90
2023-08-12T02:50:56.808Z,10.89
2023-08-12T02:55:59.477Z,10.84
2023-08-12T03:01:02.182Z,10.75
2023-08-12T03:06:04.857Z,10.72
2023-08-12T03:11:07.515Z,10.75
2023-08-12T03:16:14.957Z,10.78
2023-08-12T03:21:17.525Z,10.80
2023-08-12T03:26:20.166Z,10.82
2023-08-12T03:31:22.892Z,10.89
2023-08-12T03:36:25.584Z,11.01
2023-08-12T03:41:28.424Z,11.13
2023-08-12T03:46:31.206Z,11.28
2023-08-12T03:51:33.975Z,11.45
2023-08-12T03:56:36.635Z,11.63
2023-08-12T04:01:39.324Z,11.84
2023-08-12T04:06:41.945Z,12.09
2023-08-12T04:11:46.355Z,12.37
2023-08-12T04:16:49.488Z,12.67
2023-08-12T04:21:52.395Z,12.95
2023-08-12T04:26:55.046Z,13.20
2023-08-12T04:31:57.735Z,13.47
2023-08-12T04:37:00.304Z,13.79
2023-08-12T04:42:03.088Z,14.15
2023-08-12T04:47:06.118Z,14.51
2023-08-12T04:52:09.242Z,14.81
2023-08-12T04:57:12.145Z,15.04
2023-08-12T05:02:15.086Z,15.28
2023-08-12T05:07:18.688Z,15.51
2023-08-12T05:12:21.407Z,15.71
2023-08-12T05:17:24.130Z,15.86
2023-08-12T05:22:26.753Z,16.07
2023-08-12T05:27:29.481Z,16.33
2023-08-12T05:32:32.065Z,16.63
2023-08-12T05:37:34.812Z,16.99
2023-08-12T05:42:37.649Z,17.41
2023-08-12T05:47:40.547Z,17.77
2023-08-12T05:52:44.982Z,18.11
2023-08-12T05:57:48.003Z,18.40
2023-08-12T06:02:52.735Z,18.66
2023-08-12T06:07:55.724Z,18.88
2023-08-12T06:12:58.391Z,19.09
2023-08-12T06:18:02.136Z,19.30
2023-08-12T06:23:04.930Z,19.50
2023-08-12T06:28:09.692Z,19.72
2023-08-12T06:33:12.349Z,19.94
2023-08-12T06:38:15.144Z,20.21
2023-08-12T06:43:17.928Z,20.45
2023-08-12T06:48:20.610Z,20.68
2023-08-12T06:53:23.666Z,20.95
2023-08-12T06:58:26.464Z,21.17
2023-08-12T07:03:29.239Z,21.38
2023-08-12T07:08:33.308Z,21.55
2023-08-12T07:13:36.181Z,21.77
2023-08-12T07:18:39.166Z,22.04
2023-08-12T07:23:48.656Z,22.28
2023-08-12T07:28:57.612Z,22.46
2023-08-12T07:34:00.383Z,22.73
2023-08-12T07:39:03.282Z,23.01
2023-08-12T07:44:06.105Z,23.34
2023-08-12T07:49:08.802Z,23.51
2023-08-12T07:54:11.470Z,23.67
2023-08-12T07:59:14.094Z,23.78
2023-08-12T08:04:16.754Z,24.01
2023-08-12T08:09:19.323Z,24.25
2023-08-12T08:14:22.043Z,24.29
2023-08-12T08:19:29.937Z,24.34
2023-08-12T08:24:32.917Z,24.30
2023-08-12T08:29:35.567Z,24.25
2023-08-12T08:34:38.275Z,24.24
2023-08-12T08:39:40.929Z,24.44
2023-08-12T08:44:44.588Z,24.66
2023-08-12T08:49:47.737Z,24.85
2023-08-12T08:59:58.636Z,25.32
2023-08-12T09:05:03.593Z,25.58
2023-08-12T09:10:07.883Z,25.69
2023-08-12T09:15:11.651Z,25.78
2023-08-12T09:20:14.375Z,25.86
2023-08-12T09:25:21.375Z,25.85
2023-08-12T09:30:24.120Z,26.00
2023-08-12T09:35:36.872Z,26.12
2023-08-12T09:40:40.707Z,26.15
2023-08-12T09:45:46.983Z,26.27
2023-08-12T09:50:51.093Z,26.47
2023-08-12T09:55:55.243Z,26.57
2023-08-12T10:00:58.511Z,26.62
2023-08-12T10:06:04.265Z,26.70
2023-08-12T10:11:13.358Z,26.88
2023-08-12T10:16:18.262Z,26.84
2023-08-12T10:21:23.935Z,26.76
2023-08-12T10:26:26.713Z,26.98
2023-08-12T10:31:30.303Z,27.23
2023-08-12T10:36:33.190Z,27.20
2023-08-12T10:41:37.282Z,27.21
2023-08-12T10:46:40.170Z,27.23
2023-08-12T10:51:48.788Z,27.30
2023-08-12T10:57:06.957Z,27.55
2023-08-12T11:02:17.105Z,27.78
2023-08-12T11:07:22.101Z,28.08
2023-08-12T11:12:32.215Z,28.20
2023-08-12T11:17:43.072Z,28.32
2023-08-12T11:22:45.859Z,28.46
2023-08-12T11:27:49.357Z,28.48
2023-08-12T11:32:56.943Z,28.59
2023-08-12T11:38:00.207Z,28.59
2023-08-12T11:43:04.537Z,28.71
2023-08-12T11:48:11.110Z,28.86
2023-08-12T11:53:13.855Z,28.98
2023-08-12T11:58:21.453Z,29.17
2023-08-12T12:03:28.997Z,29.30
2023-08-12T12:08:35.004Z,29.52
2023-08-12T12:13:37.922Z,29.61
2023-08-12T12:18:40.620Z,29.64
2023-08-12T12:23:43.307Z,29.77
2023-08-12T12:28:45.995Z,29.89
2023-08-12T12:33:48.698Z,30.05
2023-08-12T12:38:51.368Z,30.25
2023-08-12T12:43:54.094Z,30.45
2023-08-12T12:48:56.830Z,30.70
2023-08-12T12:53:59.492Z,30.85
2023-08-12T12:59:02.230Z,30.92
2023-08-12T13:04:05.088Z,30.95
2023-08-12T13:09:07.826Z,31.09
2023-08-12T13:14:10.567Z,31.13
2023-08-12T13:19:13.227Z,31.22
2023-08-12T13:24:16.513Z,31.31
2023-08-12T13:29:19.213Z,31.37
2023-08-12T13:34:21.895Z,31.72
2023-08-12T13:39:24.556Z,32.31
2023-08-12T13:44:27.295Z,32.98
2023-08-12T13:49:32.652Z,33.66
2023-08-12T13:54:35.258Z,34.24
2023-08-12T13:59:37.774Z,34.67
2023-08-12T14:04:40.522Z,35.20
2023-08-12T14:09:43.668Z,35.67
2023-08-12T14:14:46.851Z,35.89
2023-08-12T14:19:50.920Z,36.40
2023-08-12T14:24:53.950Z,36.69
2023-08-12T14:29:56.615Z,37.08
2023-08-12T14:34:59.298Z,37.58
2023-08-12T14:40:02.643Z,38.06
2023-08-12T14:45:05.740Z,38.72
2023-08-12T14:50:09.763Z,39.36
2023-08-12T14:55:12.417Z,39.87
2023-08-12T15:00:15.728Z,40.08
2023-08-12T15:05:18.613Z,40.10
2023-08-12T15:10:21.428Z,40.33
2023-08-12T15:15:24.031Z,40.79
2023-08-12T15:20:26.930Z,41.23
2023-08-12T15:25:29.631Z,41.61
2023-08-12T15:30:32.547Z,42.06
2023-08-12T15:35:35.397Z,42.55
2023-08-12T15:40:39.863Z,42.86
2023-08-12T15:45:43.569Z,42.93
2023-08-12T15:50:48.927Z,43.20
2023-08-12T15:55:52.943Z,43.61
2023-08-12T16:00:55.730Z,43.39
2023-08-12T16:06:01.701Z,42.76
2023-08-12T16:11:04.760Z,42.29
2023-08-12T16:16:07.572Z,41.74
2023-08-12T16:21:10.330Z,40.44
2023-08-12T16:26:13.101Z,38.61
2023-08-12T16:31:15.805Z,37.26
2023-08-12T16:36:18.670Z,36.21
2023-08-12T16:41:21.445Z,35.09
2023-08-12T16:46:24.489Z,34.07
2023-08-12T16:51:27.863Z,33.10
2023-08-12T16:56:30.432Z,32.20
2023-08-12T17:01:33.476Z,31.36
2023-08-12T17:06:36.451Z,30.56
2023-08-12T17:11:39.230Z,29.80
2023-08-12T17:16:41.982Z,29.09
2023-08-12T17:21:44.989Z,28.47
2023-08-12T17:26:47.865Z,27.96
2023-08-12T17:31:50.515Z,27.52
2023-08-12T17:36:53.485Z,27.12
2023-08-12T17:41:56.178Z,26.71
2023-08-12T17:47:00.378Z,26.27
2023-08-12T17:52:03.204Z,25.80
2023-08-12T17:57:05.870Z,25.37
2023-08-12T18:02:08.610Z,24.94
2023-08-12T18:07:11.637Z,24.54
2023-08-12T18:12:14.576Z,24.16
2023-08-12T18:17:17.623Z,23.79
2023-08-12T18:22:20.557Z,23.43
2023-08-12T18:27:23.227Z,23.11
2023-08-12T18:32:29.369Z,22.82
2023-08-12T18:37:32.612Z,22.53
2023-08-12T18:42:36.840Z,22.26
2023-08-12T18:47:39.609Z,21.99
2023-08-12T18:52:42.444Z,21.76
2023-08-12T18:57:45.164Z,21.57
2023-08-12T19:02:47.816Z,21.40
2023-08-12T19:07:50.575Z,21.26
2023-08-12T19:12:53.264Z,21.14
2023-08-12T19:17:55.984Z,21.03
2023-08-12T19:22:58.777Z,20.94
2023-08-12T19:28:01.458Z,20.85
2023-08-12T19:33:04.824Z,20.76
2023-08-12T19:38:15.325Z,20.65
2023-08-12T19:43:18.014Z,20.52
2023-08-12T19:48:21.098Z,20.38
2023-08-12T19:53:24.777Z,20.27
2023-08-12T19:58:27.446Z,20.18
2023-08-12T20:03:30.462Z,20.10
2023-08-12T20:08:33.283Z,20.03
2023-08-12T20:13:36.038Z,19.95
2023-08-12T20:18:38.732Z,19.89
2023-08-12T20:23:42.450Z,19.82
2023-08-12T20:28:45.074Z,19.75
2023-08-12T20:33:47.740Z,19.69
2023-08-12T20:38:50.590Z,19.63
2023-08-12T20:43:53.285Z,19.56
2023-08-12T20:48:55.945Z,19.50
2023-08-12T20:53:58.583Z,19.43
2023-08-12T20:59:01.373Z,19.35
2023-08-12T21:04:04.265Z,19.27
2023-08-12T21:09:07.083Z,19.19
2023-08-12T21:14:09.793Z,19.11
2023-08-12T21:19:14.375Z,19.04
2023-08-12T21:24:16.973Z,18.98
2023-08-12T21:29:21.418Z,18.92
2023-08-12T21:34:24.213Z,18.88
2023-08-12T21:39:26.884Z,18.85
2023-08-12T21:44:29.752Z,18.84
2023-08-12T21:49:32.621Z,18.88
2023-08-12T21:54:35.261Z,18.93
2023-08-12T21:59:37.956Z,18.96
2023-08-12T22:04:40.655Z,18.99
2023-08-12T22:09:43.254Z,18.99
2023-08-12T22:14:46.348Z,19.00
2023-08-12T22:19:49.855Z,18.99
2023-08-12T22:24:52.602Z,18.97
2023-08-12T22:29:55.274Z,18.95
2023-08-12T22:34:57.933Z,18.93
2023-08-12T22:40:00.644Z,18.93
2023-08-12T22:45:05.216Z,18.96
2023-08-12T22:50:10.452Z,19.01
2023-08-12T22:55:13.191Z,19.05
2023-08-12T23:00:16.252Z,19.08
2023-08-12T23:05:19.382Z,19.11
2023-08-12T23:10:22.230Z,19.15
2023-08-12T23:15:24.953Z,19.19
2023-08-12T23:20:27.660Z,19.23
2023-08-12T23:25:30.534Z,19.28
2023-08-12T23:30:33.361Z,19.35
2023-08-12T23:35:36.338Z,19.39
2023-08-12T23:40:40.314Z,19.44
2023-08-12T23:45:42.922Z,19.47
2023-08-12T23:50:45.633Z,19.50
2023-08-12T23:55:50.998Z,19.53
